Time;durP1;ratioP1;P1;durP2;ratioP2;P2;SDS_P1;SDS_P2;PMS_P1;PMS_P2;Temp;Humidity;BMP_temperature;BMP_pressure;BME280_temperature;BME280_humidity;BME280_pressure;Samples;Min_cycle;Max_cycle;Signal;HPM_P1;HPM_P2
2022/08/15 00:02:19;;;;;;;24.30;19.02;;;21.90;99.90;;;;;;5060391;28;20216;-79
2022/08/15 00:05:28;;;;;;;27.48;19.38;;;21.90;99.90;;;;;;5043297;28;20235;-77
2022/08/15 00:08:20;;;;;;;21.08;17.88;;;21.80;99.90;;;;;;5045108;28;20221;-79
2022/08/15 00:11:32;;;;;;;19.83;17.75;;;21.80;99.90;;;;;;5057479;28;20259;-80
2022/08/15 00:14:24;;;;;;;21.88;18.27;;;21.80;99.90;;;;;;5045504;28;20221;-79
2022/08/15 00:17:20;;;;;;;23.73;18.67;;;21.80;99.90;;;;;;5044260;28;20354;-78
2022/08/15 00:20:11;;;;;;;22.52;19.25;;;21.80;99.90;;;;;;5055169;28;20239;-77
2022/08/15 00:23:26;;;;;;;24.83;17.83;;;21.70;99.90;;;;;;5060143;28;20321;-78
2022/08/15 00:26:18;;;;;;;25.25;19.15;;;21.70;99.90;;;;;;5056332;28;20228;-78
2022/08/15 00:29:29;;;;;;;22.13;18.23;;;21.80;99.90;;;;;;5049572;28;20234;-77
2022/08/15 00:32:26;;;;;;;22.80;18.27;;;21.60;99.90;;;;;;5058771;28;20212;-78
2022/08/15 00:35:37;;;;;;;24.50;19.33;;;21.60;99.90;;;;;;5059549;28;20228;-79
2022/08/15 00:38:31;;;;;;;20.35;18.20;;;21.60;99.90;;;;;;5060831;28;20224;-78
2022/08/15 00:41:41;;;;;;;22.83;18.10;;;21.60;99.90;;;;;;5048796;28;20231;-79
2022/08/15 00:44:34;;;;;;;21.30;18.45;;;21.60;99.90;;;;;;5055266;28;20708;-78
2022/08/15 00:48:41;;;;;;;21.75;19.45;;;21.60;99.90;;;;;;5044539;28;20227;-79
2022/08/15 00:50:52;;;;;;;21.77;18.17;;;21.50;99.90;;;;;;5057774;28;20223;-78
2022/08/15 00:53:53;;;;;;;21.95;18.73;;;21.60;99.90;;;;;;5041851;28;20224;-78
2022/08/15 00:56:46;;;;;;;23.77;19.20;;;21.60;99.90;;;;;;5054361;28;20709;-78
2022/08/15 00:59:44;;;;;;;30.10;18.67;;;21.60;99.90;;;;;;5057617;28;20223;-77
2022/08/15 01:02:44;;;;;;;24.13;19.25;;;21.60;99.90;;;;;;5045186;28;20895;-78
2022/08/15 01:05:34;;;;;;;23.48;18.77;;;21.50;99.90;;;;;;5059266;28;20783;-78
2022/08/15 01:08:28;;;;;;;22.65;19.08;;;21.60;99.90;;;;;;5044566;28;20228;-78
2022/08/15 01:11:32;;;;;;;25.05;18.77;;;21.50;99.90;;;;;;5047107;28;20358;-77
2022/08/15 01:14:22;;;;;;;23.95;19.05;;;21.50;99.90;;;;;;5040850;28;20364;-79
2022/08/15 01:17:32;;;;;;;22.25;19.95;;;21.50;99.90;;;;;;5060215;28;20216;-77
2022/08/15 01:20:26;;;;;;;20.70;18.23;;;21.50;99.90;;;;;;5046437;28;20311;-78
2022/08/15 01:23:24;;;;;;;21.80;19.48;;;21.50;99.90;;;;;;5049032;28;20288;-77
2022/08/15 01:26:33;;;;;;;21.75;19.08;;;21.40;99.90;;;;;;5048769;28;20241;-76
2022/08/15 01:29:33;;;;;;;22.05;18.38;;;21.40;99.90;;;;;;5059045;28;20232;-76
2022/08/15 01:32:22;;;;;;;21.38;18.50;;;21.40;99.90;;;;;;5068442;28;20716;-76
2022/08/15 01:35:12;;;;;;;22.25;18.92;;;21.30;99.90;;;;;;5047162;28;20888;-78
2022/08/15 01:38:00;;;;;;;21.67;18.55;;;21.30;99.90;;;;;;5050444;28;20259;-79
2022/08/15 01:41:04;;;;;;;21.33;18.80;;;21.40;99.90;;;;;;5049892;28;20313;-78
2022/08/15 01:44:11;;;;;;;21.58;18.33;;;21.40;99.90;;;;;;5049513;28;20220;-76
2022/08/15 01:47:25;;;;;;;22.05;19.23;;;21.40;99.90;;;;;;5052128;28;20775;-77
2022/08/15 01:50:17;;;;;;;24.83;19.08;;;21.40;99.90;;;;;;5048361;28;20580;-78
2022/08/15 01:53:25;;;;;;;24.58;19.45;;;21.40;99.90;;;;;;5044538;28;20229;-79
2022/08/15 01:56:22;;;;;;;21.75;18.55;;;21.30;99.90;;;;;;5062962;28;20220;-78
2022/08/15 01:59:23;;;;;;;22.75;18.83;;;21.30;99.90;;;;;;5046387;28;20709;-79
2022/08/15 02:02:20;;;;;;;22.90;18.65;;;21.30;99.90;;;;;;5047647;28;20220;-78
2022/08/15 02:05:29;;;;;;;20.02;17.95;;;21.30;99.90;;;;;;5062993;28;20208;-78
2022/08/15 02:08:18;;;;;;;24.70;19.73;;;21.30;99.90;;;;;;5057936;28;20227;-78
2022/08/15 02:11:27;;;;;;;23.70;18.10;;;21.20;99.90;;;;;;5066574;28;20219;-77
2022/08/15 02:14:33;;;;;;;26.10;18.98;;;21.20;99.90;;;;;;5047732;28;20949;-77
2022/08/15 02:17:31;;;;;;;23.10;19.27;;;21.20;99.90;;;;;;5049978;28;20231;-78
2022/08/15 02:20:20;;;;;;;23.58;18.92;;;21.20;99.90;;;;;;5049748;28;20220;-78
2022/08/15 02:23:12;;;;;;;23.15;18.95;;;21.20;99.90;;;;;;5043442;28;20220;-78
2022/08/15 02:26:09;;;;;;;24.20;19.17;;;21.20;99.90;;;;;;5050328;28;20216;-77
2022/08/15 02:29:00;;;;;;;24.85;19.08;;;21.10;99.90;;;;;;5049209;28;20216;-78
2022/08/15 02:32:00;;;;;;;21.48;19.23;;;21.10;99.90;;;;;;5051292;28;20289;-79
2022/08/15 02:34:53;;;;;;;25.30;19.55;;;21.10;99.90;;;;;;5047162;28;20701;-79
2022/08/15 02:37:44;;;;;;;24.08;19.35;;;21.10;99.90;;;;;;5047611;28;20220;-78
2022/08/15 02:40:49;;;;;;;22.10;19.70;;;21.10;99.90;;;;;;5043500;28;20354;-76
2022/08/15 02:43:43;;;;;;;25.00;19.65;;;21.00;99.90;;;;;;5043827;28;20224;-76
2022/08/15 02:46:32;;;;;;;27.70;19.90;;;21.00;99.90;;;;;;5044221;28;20315;-78
2022/08/15 02:49:24;;;;;;;21.58;19.38;;;21.00;99.90;;;;;;5062544;28;20277;-76
2022/08/15 02:52:23;;;;;;;21.88;19.58;;;21.00;99.90;;;;;;5049697;28;20220;-73
2022/08/15 02:55:16;;;;;;;21.17;18.90;;;21.00;99.90;;;;;;5061002;28;21126;-77
2022/08/15 02:58:05;;;;;;;22.55;19.52;;;21.00;99.90;;;;;;5063039;28;20219;-77
2022/08/15 03:00:55;;;;;;;24.33;20.20;;;21.00;99.90;;;;;;5046621;28;20227;-77
2022/08/15 03:03:48;;;;;;;23.50;19.90;;;20.90;99.90;;;;;;5060951;28;20251;-77
2022/08/15 03:06:41;;;;;;;22.40;19.00;;;20.90;99.90;;;;;;5040406;28;20235;-78
2022/08/15 03:09:32;;;;;;;22.35;19.80;;;20.90;99.90;;;;;;5054930;28;20224;-78
2022/08/15 03:12:31;;;;;;;22.98;20.30;;;20.80;99.90;;;;;;5044634;28;20243;-78
2022/08/15 03:15:24;;;;;;;22.75;20.02;;;20.80;99.90;;;;;;5042088;28;20208;-78
2022/08/15 03:18:14;;;;;;;22.85;19.40;;;20.80;99.90;;;;;;5047604;28;20212;-78
2022/08/15 03:21:20;;;;;;;23.20;20.45;;;20.90;99.90;;;;;;5057841;28;20227;-78
2022/08/15 03:24:13;;;;;;;30.17;20.27;;;20.90;99.90;;;;;;5047419;28;20223;-78
2022/08/15 03:27:06;;;;;;;23.67;20.23;;;21.00;99.90;;;;;;5045529;28;20220;-78
2022/08/15 03:29:54;;;;;;;24.38;19.90;;;21.00;99.90;;;;;;5043148;28;20761;-79
2022/08/15 03:32:46;;;;;;;22.20;18.85;;;21.00;99.90;;;;;;5065462;28;20307;-76
2022/08/15 03:35:42;;;;;;;24.88;20.27;;;21.00;99.90;;;;;;5059345;28;20231;-77
2022/08/15 03:38:36;;;;;;;21.75;19.38;;;20.90;99.90;;;;;;5041675;28;20227;-76
2022/08/15 03:41:41;;;;;;;27.45;19.55;;;20.90;99.90;;;;;;5046289;28;20239;-77
2022/08/15 03:44:31;;;;;;;21.52;19.23;;;20.90;99.90;;;;;;5045180;28;20330;-77
2022/08/15 03:47:21;;;;;;;20.80;18.73;;;20.90;99.90;;;;;;5062484;28;20219;-77
2022/08/15 03:50:12;;;;;;;22.40;19.98;;;20.90;99.90;;;;;;5046572;28;20228;-78
2022/08/15 03:53:21;;;;;;;21.90;19.52;;;20.90;99.90;;;;;;5044405;28;20212;-79
2022/08/15 03:56:13;;;;;;;21.85;19.45;;;20.90;99.90;;;;;;5045515;28;20254;-79
2022/08/15 03:59:06;;;;;;;21.67;19.48;;;20.80;99.90;;;;;;5044129;28;20781;-78
2022/08/15 04:02:00;;;;;;;24.67;19.20;;;20.90;99.90;;;;;;5046591;28;20303;-79
2022/08/15 04:04:51;;;;;;;21.98;19.50;;;20.80;99.90;;;;;;5048183;28;20240;-77
2022/08/15 04:07:41;;;;;;;22.13;19.05;;;20.80;99.90;;;;;;5059580;28;20231;-78
2022/08/15 04:10:34;;;;;;;22.50;19.23;;;20.80;99.90;;;;;;5060450;28;20232;-77
2022/08/15 04:13:30;;;;;;;22.52;18.58;;;20.90;99.90;;;;;;5043532;28;20223;-77
2022/08/15 04:16:22;;;;;;;23.48;18.98;;;20.90;99.90;;;;;;5045823;28;20228;-77
2022/08/15 04:19:30;;;;;;;22.08;19.52;;;20.90;99.90;;;;;;5045762;28;20216;-79
2022/08/15 04:22:41;;;;;;;22.50;19.10;;;20.90;99.90;;;;;;5057420;28;20219;-78
2022/08/15 04:25:44;;;;;;;20.58;18.05;;;20.90;99.90;;;;;;5055056;28;20215;-78
2022/08/15 04:28:44;;;;;;;21.63;18.50;;;21.00;99.90;;;;;;5058146;28;20227;-77
2022/08/15 04:31:48;;;;;;;20.70;18.50;;;21.10;99.90;;;;;;5042862;28;20700;-77
2022/08/15 04:34:42;;;;;;;22.80;20.08;;;21.10;99.90;;;;;;5046830;28;20235;-77
2022/08/15 04:37:40;;;;;;;21.88;18.73;;;21.20;99.90;;;;;;5061758;28;20227;-79
2022/08/15 04:40:31;;;;;;;22.63;18.73;;;21.20;99.90;;;;;;5061161;28;20223;-78
2022/08/15 04:43:42;;;;;;;21.23;18.95;;;21.10;99.90;;;;;;5039774;28;20227;-77
2022/08/15 04:46:38;;;;;;;21.20;17.48;;;21.10;99.90;;;;;;5056963;28;20222;-76
2022/08/15 04:49:32;;;;;;;22.85;19.15;;;21.20;99.90;;;;;;5057083;28;20232;-76
2022/08/15 04:52:22;;;;;;;20.65;18.60;;;21.30;99.90;;;;;;5060318;28;20227;-78
2022/08/15 04:55:16;;;;;;;21.23;18.95;;;21.30;99.90;;;;;;5046068;28;20259;-77
2022/08/15 04:58:06;;;;;;;24.15;19.40;;;21.30;99.90;;;;;;5049843;28;20231;-77
2022/08/15 05:01:16;;;;;;;22.45;18.40;;;21.30;99.90;;;;;;5060186;28;20221;-77
2022/08/15 05:04:11;;;;;;;21.85;17.60;;;21.30;99.90;;;;;;5048241;28;20224;-77
2022/08/15 05:07:16;;;;;;;22.67;18.30;;;21.30;99.90;;;;;;5045897;28;20219;-80
2022/08/15 05:10:08;;;;;;;24.08;18.85;;;21.50;99.90;;;;;;5049796;28;20715;-79
2022/08/15 05:13:10;;;;;;;20.45;18.35;;;21.60;99.90;;;;;;5047886;28;20605;-80
2022/08/15 05:16:00;;;;;;;20.90;18.70;;;21.70;99.90;;;;;;5048060;28;20601;-79
2022/08/15 05:18:55;;;;;;;21.25;19.15;;;21.60;99.90;;;;;;5046837;28;20228;-78
2022/08/15 05:21:46;;;;;;;22.02;18.45;;;21.50;99.90;;;;;;5063917;28;20735;-79
2022/08/15 05:24:39;;;;;;;21.13;18.75;;;21.70;99.90;;;;;;5060263;28;20220;-78
2022/08/15 05:27:30;;;;;;;25.52;18.17;;;21.80;99.90;;;;;;5060361;28;20223;-77
2022/08/15 05:30:23;;;;;;;20.17;18.05;;;21.80;99.90;;;;;;5039866;28;20243;-79
2022/08/15 05:33:27;;;;;;;22.30;17.58;;;21.90;99.90;;;;;;5040494;28;20757;-78
2022/08/15 05:36:53;;;;;;;20.70;17.98;;;22.00;99.90;;;;;;5049778;28;20231;-78
2022/08/15 05:40:01;;;;;;;20.65;18.23;;;22.00;99.90;;;;;;5022264;28;20228;-80
2022/08/15 05:43:11;;;;;;;23.23;18.10;;;22.00;99.90;;;;;;5033337;28;20259;-78
2022/08/15 05:46:14;;;;;;;18.40;16.55;;;22.00;99.90;;;;;;5045433;28;20260;-79
2022/08/15 05:49:29;;;;;;;19.15;17.15;;;21.90;99.90;;;;;;5039750;28;20213;-78
2022/08/15 05:52:30;;;;;;;23.60;19.20;;;21.90;99.90;;;;;;5055320;28;20711;-78
2022/08/15 05:55:37;;;;;;;19.90;17.83;;;21.80;99.90;;;;;;5061116;28;20724;-79
2022/08/15 05:58:46;;;;;;;20.17;18.17;;;21.80;99.90;;;;;;5030953;28;20209;-79
2022/08/15 06:02:02;;;;;;;23.33;16.67;;;21.90;99.90;;;;;;5029391;28;20277;-80
2022/08/15 06:05:27;;;;;;;20.30;18.15;;;22.00;99.90;;;;;;5043847;28;20759;-78
2022/08/15 06:08:33;;;;;;;19.83;17.30;;;22.30;99.90;;;;;;5052285;28;20554;-77
2022/08/15 06:11:48;;;;;;;19.48;17.33;;;22.30;99.90;;;;;;5051053;28;22022;-78
2022/08/15 06:15:02;;;;;;;21.15;16.70;;;22.50;99.90;;;;;;5024502;28;20224;-77
2022/08/15 06:18:15;;;;;;;22.27;17.00;;;22.70;99.90;;;;;;5047329;28;20232;-77
2022/08/15 06:21:24;;;;;;;19.73;16.35;;;22.70;99.90;;;;;;5048773;28;20219;-78
2022/08/15 06:24:34;;;;;;;18.90;17.00;;;22.80;99.90;;;;;;5047691;28;20221;-78
2022/08/15 06:27:57;;;;;;;19.67;17.48;;;22.90;99.90;;;;;;5029664;28;20245;-78
2022/08/15 06:31:21;;;;;;;19.80;16.73;;;23.00;99.90;;;;;;5043806;28;20220;-78
2022/08/15 06:34:23;;;;;;;18.45;16.55;;;22.80;99.90;;;;;;5047685;28;20270;-79
2022/08/15 06:37:44;;;;;;;19.40;17.38;;;22.70;99.90;;;;;;5045026;28;20259;-77
2022/08/15 06:40:59;;;;;;;19.77;17.20;;;22.70;99.90;;;;;;5044911;28;20242;-76
2022/08/15 06:43:54;;;;;;;21.08;18.02;;;22.90;99.90;;;;;;5059141;28;20281;-76
2022/08/15 06:46:55;;;;;;;20.35;16.83;;;23.10;99.90;;;;;;5045499;28;20307;-76
2022/08/15 06:49:50;;;;;;;18.83;16.83;;;23.40;99.90;;;;;;5056120;28;20220;-77
2022/08/15 06:52:51;;;;;;;19.20;17.13;;;23.70;99.90;;;;;;5055827;28;21040;-76
2022/08/15 06:55:53;;;;;;;18.30;16.23;;;23.80;99.90;;;;;;5063954;28;20215;-79
2022/08/15 06:58:52;;;;;;;18.88;16.55;;;23.80;99.90;;;;;;5061528;28;20290;-78
2022/08/15 07:02:00;;;;;;;17.83;15.93;;;23.60;99.90;;;;;;5045590;28;20219;-80
2022/08/15 07:05:18;;;;;;;18.70;16.77;;;23.80;99.90;;;;;;5050692;28;20740;-77
2022/08/15 07:08:29;;;;;;;19.30;17.23;;;23.90;99.90;;;;;;5047273;28;20221;-80
2022/08/15 07:11:27;;;;;;;18.50;16.60;;;24.10;99.90;;;;;;5035496;28;20603;-80
2022/08/15 07:14:35;;;;;;;19.08;16.92;;;23.90;99.90;;;;;;5046856;28;20224;-76
2022/08/15 07:17:38;;;;;;;21.23;19.00;;;23.80;99.90;;;;;;5030175;28;20312;-76
2022/08/15 07:20:32;;;;;;;20.45;18.40;;;23.60;99.90;;;;;;5062389;28;20224;-79
2022/08/15 07:23:29;;;;;;;21.02;17.83;;;23.80;99.90;;;;;;5055100;28;20220;-75
2022/08/15 07:26:20;;;;;;;20.73;17.52;;;23.80;99.90;;;;;;5043938;28;20633;-78
2022/08/15 07:29:18;;;;;;;21.70;17.15;;;23.90;99.90;;;;;;5058740;28;20228;-78
2022/08/15 07:32:17;;;;;;;21.02;16.77;;;23.70;99.90;;;;;;5053077;28;20236;-77
2022/08/15 07:35:34;;;;;;;19.25;17.35;;;23.70;99.90;;;;;;5024256;28;20269;-77
2022/08/15 07:38:41;;;;;;;19.60;17.55;;;23.70;99.90;;;;;;5021332;28;20244;-76
2022/08/15 07:41:51;;;;;;;18.42;16.60;;;24.00;99.90;;;;;;5026925;28;20304;-76
2022/08/15 07:45:02;;;;;;;19.48;16.90;;;24.20;99.90;;;;;;4987671;28;20406;-81
2022/08/15 07:48:30;;;;;;;20.77;16.58;;;24.30;99.90;;;;;;5041446;28;20264;-79
2022/08/15 07:51:49;;;;;;;17.95;16.05;;;24.30;99.90;;;;;;5017879;28;20232;-78
2022/08/15 07:55:17;;;;;;;17.33;15.57;;;24.10;99.90;;;;;;5025586;28;20269;-78
2022/08/15 07:58:57;;;;;;;16.85;15.00;;;24.10;99.90;;;;;;5010612;28;20231;-80
2022/08/15 08:02:11;;;;;;;18.80;15.13;;;23.90;99.90;;;;;;5001390;28;20240;-80
2022/08/15 08:05:41;;;;;;;16.45;14.70;;;24.00;99.90;;;;;;5041721;28;20239;-78
2022/08/15 08:08:56;;;;;;;18.65;15.48;;;24.00;99.90;;;;;;5021628;28;20239;-76
2022/08/15 08:12:01;;;;;;;16.05;14.35;;;24.10;99.90;;;;;;5041211;28;20234;-78
2022/08/15 08:15:24;;;;;;;16.67;14.93;;;24.20;99.90;;;;;;5019708;28;20228;-79
2022/08/15 08:18:48;;;;;;;16.77;15.10;;;24.30;99.90;;;;;;5046856;28;20377;-79
2022/08/15 08:21:50;;;;;;;15.95;14.27;;;24.50;99.90;;;;;;5042183;28;20258;-77
2022/08/15 08:24:57;;;;;;;16.58;14.88;;;24.70;99.90;;;;;;5058987;28;20216;-77
2022/08/15 08:28:27;;;;;;;20.80;15.85;;;25.00;99.90;;;;;;5044794;28;20304;-77
2022/08/15 08:31:41;;;;;;;17.48;15.40;;;25.20;99.90;;;;;;5052258;28;20605;-77
2022/08/15 08:35:00;;;;;;;25.08;16.50;;;25.30;99.90;;;;;;5033336;28;20738;-78
2022/08/15 08:38:13;;;;;;;18.52;15.32;;;25.20;99.90;;;;;;5055409;28;20231;-77
2022/08/15 08:41:42;;;;;;;18.25;16.35;;;25.00;99.90;;;;;;5040154;28;20216;-81
2022/08/15 08:44:46;;;;;;;16.73;14.98;;;25.00;99.90;;;;;;5025452;28;20233;-82
2022/08/15 08:48:07;;;;;;;19.63;17.13;;;24.90;99.90;;;;;;5064227;28;20322;-78
2022/08/15 08:51:08;;;;;;;17.92;15.60;;;24.90;99.90;;;;;;5063624;28;20366;-78
2022/08/15 08:54:06;;;;;;;18.58;16.42;;;24.80;99.90;;;;;;5063982;28;20300;-79
2022/08/15 08:57:01;;;;;;;19.13;17.17;;;24.60;99.90;;;;;;5062816;28;20269;-79
2022/08/15 08:59:59;;;;;;;18.10;16.38;;;24.30;99.90;;;;;;5060556;28;20224;-79
2022/08/15 09:02:54;;;;;;;22.08;16.50;;;24.40;99.90;;;;;;5048520;28;20220;-79
2022/08/15 09:05:51;;;;;;;20.25;16.25;;;24.90;99.90;;;;;;5046318;28;20223;-78
2022/08/15 09:08:43;;;;;;;19.92;16.25;;;25.10;99.90;;;;;;5063913;28;20252;-77
2022/08/15 09:11:41;;;;;;;17.63;15.73;;;25.60;99.90;;;;;;5051750;28;20220;-77
2022/08/15 09:14:35;;;;;;;17.63;15.82;;;26.10;99.90;;;;;;5065861;28;21575;-78
2022/08/15 09:17:49;;;;;;;17.13;15.35;;;26.60;99.90;;;;;;5060993;28;20227;-75
2022/08/15 09:20:48;;;;;;;16.50;14.80;;;27.50;99.90;;;;;;5064756;28;20235;-79
2022/08/15 09:23:44;;;;;;;17.70;15.30;;;27.00;99.90;;;;;;5050003;28;20216;-79
2022/08/15 09:26:45;;;;;;;14.95;13.27;;;27.30;99.90;;;;;;5063070;28;20304;-78
2022/08/15 09:29:38;;;;;;;15.27;13.68;;;28.30;99.90;;;;;;5062703;28;20739;-80
2022/08/15 09:33:00;;;;;;;16.02;14.32;;;28.70;99.90;;;;;;5063828;28;20220;-78
2022/08/15 09:36:12;;;;;;;15.35;13.75;;;28.40;99.90;;;;;;5034096;28;20217;-81
2022/08/15 09:39:36;;;;;;;14.88;13.30;;;28.40;99.90;;;;;;5030181;28;20223;-80
2022/08/15 09:42:55;;;;;;;14.77;13.38;;;28.30;99.90;;;;;;5060274;28;20252;-79
2022/08/15 09:46:39;;;;;;;16.10;13.57;;;28.20;99.90;;;;;;5060322;28;20224;-78
2022/08/15 09:50:06;;;;;;;19.40;14.27;;;27.70;99.90;;;;;;5055721;28;20230;-82
2022/08/15 09:53:29;;;;;;;15.63;14.02;;;27.60;99.90;;;;;;5055298;28;20212;-85
2022/08/15 09:56:40;;;;;;;15.63;14.00;;;27.40;99.90;;;;;;5046696;28;20222;-81
2022/08/15 09:59:47;;;;;;;20.15;13.88;;;27.70;99.90;;;;;;5043337;28;20356;-80
2022/08/15 10:02:55;;;;;;;15.63;14.02;;;27.80;99.90;;;;;;5044799;28;20231;-79
2022/08/15 10:06:09;;;;;;;15.00;13.60;;;28.40;99.90;;;;;;5026559;28;20224;-79
2022/08/15 10:09:35;;;;;;;15.90;14.30;;;28.60;99.90;;;;;;5042864;28;20220;-78
2022/08/15 10:12:37;;;;;;;16.58;14.75;;;29.30;99.90;;;;;;5054506;28;20731;-87
2022/08/15 10:15:41;;;;;;;17.75;14.55;;;29.30;99.90;;;;;;5043108;28;20220;-93
2022/08/15 10:19:08;;;;;;;18.83;15.57;;;29.50;99.90;;;;;;5055005;28;20887;-82
2022/08/15 10:22:00;;;;;;;17.60;15.30;;;29.40;99.90;;;;;;5052514;28;20356;-82
2022/08/15 10:25:17;;;;;;;20.08;14.40;;;29.60;99.90;;;;;;5031585;28;20235;-84
2022/08/15 10:28:19;;;;;;;17.75;13.90;;;28.70;99.90;;;;;;5046629;28;20224;-83
2022/08/15 10:31:38;;;;;;;14.32;12.93;;;29.50;99.90;;;;;;5060362;28;20696;-84
2022/08/15 10:34:55;;;;;;;17.17;14.27;;;30.70;99.90;;;;;;5047069;28;20219;-84
2022/08/15 10:37:53;;;;;;;19.00;13.10;;;31.60;99.90;;;;;;5046264;28;20216;-83
2022/08/15 10:40:54;;;;;;;15.82;14.10;;;32.60;99.90;;;;;;5060177;28;20220;-84
2022/08/15 10:43:59;;;;;;;16.05;13.25;;;31.60;99.90;;;;;;5056940;28;20219;-84
2022/08/15 10:47:01;;;;;;;16.38;14.63;;;31.60;99.90;;;;;;5057810;28;20216;-84
2022/08/15 10:50:03;;;;;;;14.52;12.93;;;30.90;99.90;;;;;;5044249;28;20218;-84
2022/08/15 10:53:16;;;;;;;13.82;12.40;;;31.00;99.90;;;;;;5059075;28;20287;-83
2022/08/15 10:56:13;;;;;;;15.07;13.50;;;30.50;99.90;;;;;;5057949;28;20621;-84
2022/08/15 10:59:26;;;;;;;16.05;13.57;;;29.80;99.90;;;;;;5047604;28;20223;-84
2022/08/15 11:02:24;;;;;;;20.13;13.65;;;29.10;99.90;;;;;;5038951;28;20215;-85
2022/08/15 11:05:27;;;;;;;16.13;14.13;;;28.40;99.90;;;;;;5059488;28;20298;-87
2022/08/15 11:08:16;;;;;;;15.07;13.50;;;28.10;99.90;;;;;;5056307;28;20212;-84
2022/08/15 11:11:11;;;;;;;15.60;13.95;;;27.70;99.90;;;;;;5057890;28;20226;-84
2022/08/15 11:14:30;;;;;;;19.35;14.10;;;27.30;99.90;;;;;;5022101;28;20232;-83
2022/08/15 11:18:25;;;;;;;15.35;13.80;;;27.10;99.90;;;;;;5019535;28;20832;-83
2022/08/15 11:21:30;;;;;;;16.65;13.48;;;27.20;99.90;;;;;;5047233;28;20230;-76
2022/08/15 11:24:28;;;;;;;19.30;13.82;;;27.70;99.90;;;;;;5050496;28;20247;-82
2022/08/15 11:27:23;;;;;;;36.75;25.98;;;28.10;99.90;;;;;;5043931;28;20220;-83
2022/08/15 11:30:23;;;;;;;15.20;13.60;;;28.90;99.90;;;;;;5058662;28;20310;-84
2022/08/15 11:33:23;;;;;;;14.55;13.02;;;28.90;99.90;;;;;;5056454;28;20227;-84
2022/08/15 11:36:18;;;;;;;17.65;12.88;;;28.80;99.90;;;;;;5063198;28;20220;-84
2022/08/15 11:39:16;;;;;;;13.70;12.30;;;31.30;99.90;;;;;;5048545;28;20292;-83
2022/08/15 11:42:21;;;;;;;14.73;12.98;;;33.40;99.90;;;;;;5045753;28;20231;-83
2022/08/15 11:45:18;;;;;;;15.63;12.73;;;34.50;99.90;;;;;;5058177;28;20226;-83
2022/08/15 11:48:14;;;;;;;12.80;11.13;;;34.10;99.90;;;;;;5058027;28;20246;-83
2022/08/15 11:51:09;;;;;;;13.40;10.32;;;33.00;99.90;;;;;;5044104;28;20720;-83
2022/08/15 11:54:18;;;;;;;12.45;9.80;;;32.30;99.90;;;;;;5046230;28;20211;-84
2022/08/15 11:57:22;;;;;;;12.98;10.00;;;32.70;99.90;;;;;;5040131;28;20224;-83
2022/08/15 12:00:42;;;;;;;14.45;10.63;;;32.40;99.90;;;;;;5057397;28;20302;-82
2022/08/15 12:03:34;;;;;;;15.27;10.00;;;31.70;99.90;;;;;;5045432;28;21009;-84
2022/08/15 12:06:44;;;;;;;15.27;10.38;;;31.60;99.90;;;;;;5041866;28;20247;-83
2022/08/15 12:09:55;;;;;;;24.55;10.55;;;31.90;99.90;;;;;;5038774;28;20583;-82
2022/08/15 12:13:07;;;;;;;13.88;10.90;;;31.20;99.90;;;;;;5056353;28;20230;-88
2022/08/15 12:16:01;;;;;;;12.50;11.00;;;30.80;99.90;;;;;;5056291;28;20308;-85
2022/08/15 12:19:29;;;;;;;15.13;11.40;;;30.50;99.90;;;;;;5039960;28;20223;-88
2022/08/15 12:22:32;;;;;;;16.35;11.63;;;29.80;99.90;;;;;;5055023;28;20241;-82
2022/08/15 12:25:41;;;;;;;13.55;12.13;;;29.50;99.90;;;;;;5040789;28;20215;-83
2022/08/15 12:28:44;;;;;;;14.25;11.70;;;29.30;99.90;;;;;;5059800;28;20219;-84
2022/08/15 12:31:42;;;;;;;20.85;11.73;;;28.80;99.90;;;;;;5047678;28;20227;-88
2022/08/15 12:34:40;;;;;;;12.60;11.15;;;28.50;99.90;;;;;;5057415;28;20247;-88
2022/08/15 12:37:30;;;;;;;15.35;11.20;;;28.60;99.90;;;;;;5043662;28;20708;-85
2022/08/15 12:40:29;;;;;;;14.75;11.82;;;28.50;99.90;;;;;;5040708;28;20311;-88
2022/08/15 12:43:39;;;;;;;17.85;11.48;;;28.50;99.90;;;;;;5060006;28;20219;-90
2022/08/15 12:46:28;;;;;;;14.60;10.60;;;28.50;99.90;;;;;;5058904;28;20227;-88
2022/08/15 12:49:18;;;;;;;15.50;11.15;;;28.50;99.90;;;;;;5046477;28;20357;-90
2022/08/15 12:52:07;;;;;;;12.48;11.13;;;28.40;99.90;;;;;;5059665;28;20564;-86
2022/08/15 12:54:58;;;;;;;11.45;10.35;;;28.50;99.90;;;;;;5052839;28;20219;-85
2022/08/15 12:57:49;;;;;;;16.27;11.70;;;28.50;99.90;;;;;;5054655;28;20229;-86
2022/08/15 13:00:43;;;;;;;12.88;10.23;;;28.40;99.90;;;;;;5041229;28;20231;-85
2022/08/15 13:03:51;;;;;;;13.30;11.23;;;28.50;99.90;;;;;;5055995;28;20215;-87
2022/08/15 13:06:51;;;;;;;18.13;10.95;;;28.60;99.90;;;;;;5042823;28;20345;-87
2022/08/15 13:13:56;;;;;;;20.75;9.82;;;28.50;99.90;;;;;;5055381;28;20215;-87
2022/08/15 13:16:46;;;;;;;15.60;10.82;;;28.60;99.90;;;;;;5048181;28;20310;-87
2022/08/15 13:26:13;;;;;;;14.48;10.40;;;28.10;99.90;;;;;;5066134;28;20232;-88
2022/08/15 13:29:20;;;;;;;15.13;9.68;;;28.00;99.90;;;;;;5047543;28;20224;-88
2022/08/15 13:32:09;;;;;;;14.13;10.32;;;28.00;99.90;;;;;;5062524;28;20248;-88
2022/08/15 13:35:00;;;;;;;15.23;10.70;;;27.90;99.90;;;;;;5052543;28;20224;-86
2022/08/15 13:37:55;;;;;;;13.93;10.43;;;27.90;99.90;;;;;;5067894;28;20240;-87
2022/08/15 13:40:52;;;;;;;15.15;10.52;;;28.00;99.90;;;;;;5058075;28;20345;-87
2022/08/15 13:43:44;;;;;;;12.20;9.90;;;27.80;99.90;;;;;;5042887;28;20833;-84
2022/08/15 13:46:47;;;;;;;18.00;10.63;;;27.90;99.90;;;;;;5056689;28;20224;-85
2022/08/15 13:49:39;;;;;;;13.13;9.85;;;28.00;99.90;;;;;;5047169;28;20236;-86
2022/08/15 13:52:28;;;;;;;23.40;10.10;;;28.00;99.90;;;;;;5060055;28;20227;-85
2022/08/15 13:55:36;;;;;;;16.08;10.10;;;28.10;99.90;;;;;;5058318;28;20236;-86
2022/08/15 13:58:30;;;;;;;19.38;11.35;;;28.10;99.90;;;;;;5060242;28;20327;-86
2022/08/15 14:01:21;;;;;;;16.60;10.30;;;28.30;99.90;;;;;;5060120;28;20216;-87
2022/08/15 14:04:22;;;;;;;15.38;9.73;;;28.00;99.90;;;;;;5059366;28;20224;-87
2022/08/15 14:07:14;;;;;;;19.73;10.07;;;27.90;99.90;;;;;;5049819;28;20228;-88
2022/08/15 14:10:06;;;;;;;18.10;9.77;;;27.80;99.90;;;;;;5072701;28;20212;-83
2022/08/15 14:13:16;;;;;;;17.63;9.57;;;27.80;99.90;;;;;;5044087;28;20220;-84
2022/08/15 14:16:11;;;;;;;14.30;9.43;;;27.80;99.90;;;;;;5064788;28;20279;-89
2022/08/15 14:19:22;;;;;;;13.32;9.70;;;27.90;99.90;;;;;;5040450;28;20277;-83
2022/08/15 14:22:31;;;;;;;15.20;9.55;;;27.90;99.90;;;;;;5038757;28;20223;-83
2022/08/15 14:25:21;;;;;;;12.95;9.27;;;27.80;99.90;;;;;;5056664;28;20222;-84
2022/08/15 14:28:30;;;;;;;13.45;9.23;;;27.90;99.90;;;;;;5042891;28;20764;-84
2022/08/15 14:31:40;;;;;;;15.98;9.13;;;27.90;99.90;;;;;;5038713;28;20220;-83
2022/08/15 14:34:30;;;;;;;17.13;9.23;;;27.80;99.90;;;;;;5056457;28;20648;-84
2022/08/15 14:37:44;;;;;;;10.85;8.68;;;27.80;99.90;;;;;;5054369;28;20732;-84
2022/08/15 14:40:38;;;;;;;14.88;8.65;;;27.70;99.90;;;;;;5039481;28;20304;-83
2022/08/15 14:43:27;;;;;;;9.35;7.90;;;27.60;99.90;;;;;;5045091;28;20907;-84
2022/08/15 14:46:18;;;;;;;11.48;8.35;;;27.60;99.90;;;;;;5057943;28;20242;-86
2022/08/15 14:49:24;;;;;;;10.25;7.80;;;27.60;99.90;;;;;;5056070;28;20232;-84
2022/08/15 14:52:34;;;;;;;12.63;8.60;;;27.60;99.90;;;;;;5055543;28;20239;-84
2022/08/15 14:55:23;;;;;;;11.27;7.70;;;27.70;99.90;;;;;;5058072;28;20224;-86
2022/08/15 14:58:14;;;;;;;10.82;7.70;;;27.70;99.90;;;;;;5046488;28;20232;-87
2022/08/15 15:01:23;;;;;;;8.63;7.30;;;27.70;99.90;;;;;;5045783;28;20228;-88
2022/08/15 15:04:20;;;;;;;10.52;7.63;;;27.70;99.90;;;;;;5060520;28;20216;-87
2022/08/15 15:07:08;;;;;;;12.00;8.20;;;27.70;99.90;;;;;;5068986;28;20699;-86
2022/08/15 15:10:12;;;;;;;11.55;7.68;;;27.70;99.90;;;;;;5065552;28;20234;-80
2022/08/15 15:13:14;;;;;;;10.18;7.07;;;27.70;99.90;;;;;;5039081;28;20216;-81
2022/08/15 15:16:03;;;;;;;13.68;8.88;;;27.70;99.90;;;;;;5061235;28;20227;-82
2022/08/15 15:19:15;;;;;;;10.88;7.03;;;27.70;99.90;;;;;;5060749;28;20262;-82
2022/08/15 15:22:04;;;;;;;7.90;6.50;;;27.70;99.90;;;;;;5061739;28;20247;-83
2022/08/15 15:24:54;;;;;;;8.25;6.22;;;27.70;99.90;;;;;;5056333;28;20771;-82
2022/08/15 15:27:45;;;;;;;9.05;6.55;;;27.70;99.90;;;;;;5059541;28;20224;-83
2022/08/15 15:30:58;;;;;;;9.55;6.47;;;27.70;99.90;;;;;;5041515;28;20212;-81
2022/08/15 15:33:48;;;;;;;7.30;6.38;;;27.60;99.90;;;;;;5037931;28;20680;-81
2022/08/15 15:36:41;;;;;;;8.13;6.38;;;27.70;99.90;;;;;;5041701;28;20709;-82